createdAt,value
2022-09-21T00:01:41.093Z,97710.59
2022-09-21T00:04:10.677Z,97706.81
2022-09-21T00:06:39.540Z,97700.84
2022-09-21T00:09:09.400Z,97697.31
2022-09-21T00:11:38.750Z,97692.75
2022-09-21T00:14:10.541Z,97695.41
2022-09-21T00:16:41.556Z,97697.06
2022-09-21T00:19:10.263Z,97690.53
2022-09-21T00:21:39.308Z,97693.25
2022-09-21T00:24:08.685Z,97696.75
2022-09-21T00:26:37.036Z,97697.34
2022-09-21T00:29:06.887Z,97696.50
2022-09-21T00:31:35.326Z,97696.78
2022-09-21T00:34:07.823Z,97697.31
2022-09-21T00:36:36.681Z,97692.19
2022-09-21T00:39:05.106Z,97695.16
2022-09-21T00:41:35.324Z,97690.53
2022-09-21T00:44:33.165Z,97694.09
2022-09-21T00:47:10.807Z,97696.78
2022-09-21T00:49:42.589Z,97694.88
2022-09-21T00:52:14.822Z,97701.09
2022-09-21T00:54:49.992Z,97706.00
2022-09-21T00:57:21.930Z,97697.81
2022-09-21T00:59:53.291Z,97706.22
2022-09-21T01:02:22.463Z,97703.50
2022-09-21T01:04:55.689Z,97706.22
2022-09-21T01:07:30.605Z,97705.69
2022-09-21T01:10:03.685Z,97710.03
2022-09-21T01:12:56.878Z,97707.06
2022-09-21T01:15:39.426Z,97700.25
2022-09-21T01:18:21.228Z,97705.41
2022-09-21T01:21:18.319Z,97703.22
2022-09-21T01:24:37.481Z,97702.91
2022-09-21T01:27:46.993Z,97700.19
2022-09-21T01:30:20.024Z,97702.06
2022-09-21T01:32:57.423Z,97700.72
2022-09-21T01:35:33.548Z,97697.75
2022-09-21T01:38:08.453Z,97696.94
2022-09-21T01:40:43.553Z,97698.84
2022-09-21T01:43:19.176Z,97702.63
2022-09-21T01:45:54.884Z,97711.25
2022-09-21T01:48:25.700Z,97708.00
2022-09-21T01:50:58.401Z,97713.88
2022-09-21T01:53:34.765Z,97711.16
2022-09-21T01:56:11.631Z,97708.19
2022-09-21T01:58:51.200Z,97707.13
2022-09-21T02:01:28.523Z,97712.56
2022-09-21T02:04:02.628Z,97707.13
2022-09-21T02:06:32.997Z,97707.63
2022-09-21T02:09:01.777Z,97700.28
2022-09-21T02:11:29.973Z,97704.06
2022-09-21T02:13:59.521Z,97704.66
2022-09-21T02:16:39.682Z,97702.50
2022-09-21T02:19:22.137Z,97707.94
2022-09-21T02:22:05.089Z,97704.72
2022-09-21T02:24:42.212Z,97699.34
2022-09-21T02:27:27.667Z,97701.22
2022-09-21T02:30:07.857Z,97706.34
2022-09-21T02:32:50.430Z,97695.75
2022-09-21T02:35:32.582Z,97706.78
2022-09-21T02:38:12.102Z,97712.41
2022-09-21T02:40:50.485Z,97704.56
2022-09-21T02:43:25.864Z,97702.94
2022-09-21T02:46:01.299Z,97706.41
2022-09-21T02:48:37.987Z,97712.00
2022-09-21T02:51:14.025Z,97717.41
2022-09-21T02:53:44.347Z,97711.44
2022-09-21T02:56:14.815Z,97713.25
2022-09-21T02:58:49.879Z,97708.66
2022-09-21T03:01:20.244Z,97707.84
2022-09-21T03:03:50.215Z,97707.38
2022-09-21T03:06:18.404Z,97715.13
2022-09-21T03:08:47.606Z,97717.78
2022-09-21T03:11:18.389Z,97709.84
2022-09-21T03:13:47.286Z,97716.03
2022-09-21T03:16:15.648Z,97712.19
2022-09-21T03:18:44.452Z,97718.38
2022-09-21T03:21:14.835Z,97717.31
2022-09-21T03:23:43.264Z,97717.28
2022-09-21T03:26:11.490Z,97716.50
2022-09-21T03:28:39.877Z,97722.41
2022-09-21T03:31:08.513Z,97724.53
2022-09-21T03:33:36.896Z,97725.84
2022-09-21T03:36:05.172Z,97726.66
2022-09-21T03:38:34.890Z,97723.66
2022-09-21T03:41:03.465Z,97723.06
2022-09-21T03:43:32.033Z,97720.59
2022-09-21T03:46:00.599Z,97732.25
2022-09-21T03:48:28.865Z,97723.66
2022-09-21T03:50:58.158Z,97725.72
2022-09-21T03:53:26.402Z,97727.22
2022-09-21T03:55:55.950Z,97731.47
2022-09-21T03:58:24.523Z,97732.56
2022-09-21T04:00:52.796Z,97734.81
2022-09-21T04:03:21.015Z,97729.75
2022-09-21T04:05:49.503Z,97726.84
2022-09-21T04:08:17.733Z,97733.84
2022-09-21T04:10:45.879Z,97740.91
2022-09-21T04:13:17.595Z,97740.88
2022-09-21T04:15:45.786Z,97743.81
2022-09-21T04:18:13.981Z,97739.19
2022-09-21T04:20:42.196Z,97737.03
2022-09-21T04:23:10.412Z,97741.94
2022-09-21T04:25:38.602Z,97743.03
2022-09-21T04:28:07.590Z,97748.22
2022-09-21T04:30:38.113Z,97753.69
2022-09-21T04:33:06.701Z,97752.41
2022-09-21T04:35:34.991Z,97746.41
2022-09-21T04:38:03.316Z,97754.94
2022-09-21T04:40:31.532Z,97757.50
2022-09-21T04:42:59.787Z,97752.56
2022-09-21T04:45:27.998Z,97754.09
2022-09-21T04:47:57.651Z,97754.13
2022-09-21T04:50:26.257Z,97759.88
2022-09-21T04:53:05.835Z,97759.13
2022-09-21T04:55:34.298Z,97759.88
2022-09-21T04:58:02.979Z,97759.84
2022-09-21T05:00:31.952Z,97760.97
2022-09-21T05:03:01.710Z,97764.56
2022-09-21T05:05:29.954Z,97770.28
2022-09-21T05:07:58.149Z,97778.69
2022-09-21T05:10:25.727Z,97786.84
2022-09-21T05:12:53.941Z,97786.28
2022-09-21T05:15:22.310Z,97790.25
2022-09-21T05:17:50.538Z,97786.72
2022-09-21T05:20:20.151Z,97786.97
2022-09-21T05:22:48.671Z,97786.44
2022-09-21T05:25:17.544Z,97790.56
2022-09-21T05:27:45.792Z,97789.59
2022-09-21T05:30:16.039Z,97794.13
2022-09-21T05:32:53.157Z,97795.00
2022-09-21T05:35:34.144Z,97799.94
2022-09-21T05:38:13.453Z,97796.72
2022-09-21T05:40:42.509Z,97794.31
2022-09-21T05:43:11.980Z,97801.19
2022-09-21T05:45:47.739Z,97798.34
2022-09-21T05:48:20.674Z,97806.25
2022-09-21T05:51:00.267Z,97805.38
2022-09-21T05:53:57.126Z,97803.97
2022-09-21T05:56:49.795Z,97800.88
2022-09-21T05:59:45.165Z,97811.75
2022-09-21T06:02:28.978Z,97801.88
2022-09-21T06:05:00.747Z,97806.06
2022-09-21T06:07:30.254Z,97803.78
2022-09-21T06:09:58.443Z,97804.16
2022-09-21T06:12:26.686Z,97804.31
2022-09-21T06:14:56.397Z,97802.78
2022-09-21T06:17:27.314Z,97803.34
2022-09-21T06:19:55.912Z,97807.34
2022-09-21T06:22:24.094Z,97813.69
2022-09-21T06:24:53.643Z,97813.16
2022-09-21T06:27:21.867Z,97813.84
2022-09-21T06:29:50.120Z,97813.88
2022-09-21T06:32:20.739Z,97812.41
2022-09-21T06:34:49.905Z,97811.72
2022-09-21T06:37:18.500Z,97820.31
2022-09-21T06:39:46.796Z,97811.00
2022-09-21T06:42:16.381Z,97810.69
2022-09-21T06:44:44.770Z,97807.66
2022-09-21T06:47:12.982Z,97809.03
2022-09-21T06:49:42.619Z,97815.06
2022-09-21T06:52:11.025Z,97822.66
2022-09-21T06:54:39.685Z,97821.91
2022-09-21T06:57:08.269Z,97818.94
2022-09-21T06:59:37.821Z,97824.72
2022-09-21T07:02:06.308Z,97818.91
2022-09-21T07:04:34.589Z,97823.50
2022-09-21T07:07:04.683Z,97822.03
2022-09-21T07:12:22.027Z,97823.84
2022-09-21T07:14:51.561Z,97826.91
2022-09-21T07:17:19.993Z,97828.19
2022-09-21T07:19:48.252Z,97836.56
2022-09-21T07:22:16.483Z,97830.94
2022-09-21T07:24:44.774Z,97836.06
2022-09-21T07:27:13.034Z,97835.69
2022-09-21T07:29:41.474Z,97840.03
2022-09-21T07:32:11.082Z,97836.19
2022-09-21T07:34:39.300Z,97839.50
2022-09-21T07:37:07.524Z,97838.63
2022-09-21T07:39:36.497Z,97843.13
2022-09-21T07:42:04.867Z,97852.50
2022-09-21T07:44:34.169Z,97843.94
2022-09-21T07:47:03.385Z,97848.16
2022-09-21T07:49:33.087Z,97845.63
2022-09-21T07:52:05.052Z,97847.63
2022-09-21T07:54:37.054Z,97846.91
2022-09-21T07:57:23.579Z,97849.72
2022-09-21T07:59:51.834Z,97851.16
2022-09-21T08:02:20.830Z,97852.22
2022-09-21T08:04:50.522Z,97844.94
2022-09-21T08:07:19.173Z,97846.06
2022-09-21T08:09:49.379Z,97848.72
2022-09-21T08:12:20.563Z,97843.19
2022-09-21T08:14:48.863Z,97845.25
2022-09-21T08:17:17.449Z,97849.97
2022-09-21T08:19:45.767Z,97859.28
2022-09-21T08:22:15.453Z,97859.00
2022-09-21T08:24:44.546Z,97853.09
2022-09-21T08:27:12.910Z,97857.44
2022-09-21T08:29:41.526Z,97863.03
2022-09-21T08:32:13.436Z,97861.63
2022-09-21T08:34:51.190Z,97856.66
2022-09-21T08:37:21.951Z,97857.44
2022-09-21T08:39:50.145Z,97863.53
2022-09-21T08:42:40.912Z,97866.19
2022-09-21T08:45:17.606Z,97858.31
2022-09-21T08:47:49.409Z,97863.66
2022-09-21T08:50:40.749Z,97862.16
2022-09-21T08:53:15.940Z,97861.28
2022-09-21T08:55:44.287Z,97859.16
2022-09-21T08:58:24.407Z,97861.47
2022-09-21T09:01:09.603Z,97858.94
2022-09-21T09:04:04.381Z,97867.25
2022-09-21T09:06:48.063Z,97862.97
2022-09-21T09:09:45.835Z,97865.09
2022-09-21T09:12:34.085Z,97867.19
2022-09-21T09:15:36.573Z,97864.50
2022-09-21T09:18:19.797Z,97865.31
2022-09-21T09:20:57.133Z,97855.91
2022-09-21T09:23:29.265Z,97849.59
2022-09-21T09:26:09.001Z,97856.06
2022-09-21T09:28:50.104Z,97851.00
2022-09-21T09:31:26.169Z,97849.06
2022-09-21T09:34:03.166Z,97854.28
2022-09-21T09:36:57.274Z,97859.44
2022-09-21T09:39:23.608Z,97849.53
2022-09-21T09:42:41.315Z,97849.41
2022-09-21T09:45:43.231Z,97849.38
2022-09-21T09:48:43.033Z,97838.81
2022-09-21T09:51:14.003Z,97845.69
2022-09-21T09:53:42.389Z,97843.72
2022-09-21T09:56:13.153Z,97839.97
2022-09-21T09:58:49.614Z,97838.16
2022-09-21T10:01:42.995Z,97831.81
2022-09-21T10:04:14.167Z,97833.13
2022-09-21T10:06:46.632Z,97833.47
2022-09-21T10:09:27.575Z,97828.34
2022-09-21T10:12:01.565Z,97824.75
2022-09-21T10:14:36.089Z,97830.03
2022-09-21T10:17:09.256Z,97828.84
2022-09-21T10:19:38.198Z,97825.03
2022-09-21T10:22:07.284Z,97819.34
2022-09-21T10:24:40.743Z,97824.38
2022-09-21T10:27:15.790Z,97823.13
2022-09-21T10:29:48.393Z,97822.66
2022-09-21T10:32:23.887Z,97819.25
2022-09-21T10:35:15.317Z,97808.31
2022-09-21T10:37:47.152Z,97813.72
2022-09-21T10:40:30.803Z,97805.75
2022-09-21T10:43:01.440Z,97808.03
2022-09-21T10:45:34.789Z,97811.19
2022-09-21T10:48:14.624Z,97810.38
2022-09-21T10:50:45.952Z,97807.72
2022-09-21T10:53:24.872Z,97809.03
2022-09-21T10:56:17.909Z,97803.69
2022-09-21T10:59:22.479Z,97805.63
2022-09-21T11:01:55.577Z,97803.41
2022-09-21T11:04:42.918Z,97799.28
2022-09-21T11:07:20.238Z,97799.44
2022-09-21T11:10:04.183Z,97805.94
2022-09-21T11:12:54.207Z,97794.81
2022-09-21T11:15:39.937Z,97796.41
2022-09-21T11:18:21.765Z,97796.34
2022-09-21T11:20:57.421Z,97788.81
2022-09-21T11:23:48.474Z,97782.56
2022-09-21T11:26:30.378Z,97788.78
2022-09-21T11:29:06.954Z,97792.25
2022-09-21T11:32:06.087Z,97785.03
2022-09-21T11:35:27.444Z,97780.81
2022-09-21T11:38:10.683Z,97783.63
2022-09-21T11:41:19.569Z,97783.78
2022-09-21T11:44:14.549Z,97784.38
2022-09-21T11:46:52.842Z,97781.59
2022-09-21T11:49:42.613Z,97776.03
2022-09-21T11:52:33.212Z,97777.16
2022-09-21T11:55:30.244Z,97777.59
2022-09-21T11:58:11.513Z,97772.34
2022-09-21T12:01:02.789Z,97766.63
2022-09-21T12:04:18.088Z,97769.19
2022-09-21T12:07:08.037Z,97762.72
2022-09-21T12:09:54.928Z,97762.19
2022-09-21T12:12:34.820Z,97760.63
2022-09-21T12:15:14.961Z,97756.97
2022-09-21T12:17:58.476Z,97747.50
2022-09-21T12:20:43.869Z,97740.22
2022-09-21T12:23:19.943Z,97746.75
2022-09-21T12:25:57.245Z,97751.06
2022-09-21T12:28:32.391Z,97747.03
2022-09-21T12:31:05.523Z,97754.94
2022-09-21T12:33:42.936Z,97743.94
2022-09-21T12:36:18.002Z,97741.53
2022-09-21T12:38:57.352Z,97745.94
2022-09-21T12:41:37.757Z,97739.66
2022-09-21T12:44:18.659Z,97736.97
2022-09-21T12:46:53.585Z,97740.53
2022-09-21T12:49:31.296Z,97736.19
2022-09-21T12:52:06.825Z,97733.84
2022-09-21T12:54:46.858Z,97738.28
2022-09-21T12:58:13.700Z,97734.59
2022-09-21T13:00:27.368Z,97731.75
2022-09-21T13:03:07.150Z,97731.41
2022-09-21T13:05:53.088Z,97734.19
2022-09-21T13:08:29.192Z,97732.97
2022-09-21T13:11:04.602Z,97730.22
2022-09-21T13:13:41.564Z,97731.53
2022-09-21T13:16:27.601Z,97724.16
2022-09-21T13:18:59.421Z,97727.22
2022-09-21T13:21:30.952Z,97730.66
2022-09-21T13:24:02.641Z,97728.41
2022-09-21T13:26:40.067Z,97721.75
2022-09-21T13:29:32.909Z,97716.16
2022-09-21T13:32:03.802Z,97715.25
2022-09-21T13:34:37.066Z,97711.63
2022-09-21T13:37:35.547Z,97704.44
2022-09-21T13:40:50.278Z,97708.75
2022-09-21T13:43:26.509Z,97705.94
2022-09-21T13:45:59.481Z,97705.47
2022-09-21T13:48:30.527Z,97701.38
2022-09-21T13:51:02.822Z,97695.28
2022-09-21T13:53:41.964Z,97697.97
2022-09-21T13:56:25.446Z,97695.56
2022-09-21T13:58:58.344Z,97685.19
2022-09-21T14:01:52.454Z,97685.47
2022-09-21T14:04:28.100Z,97689.63
2022-09-21T14:06:59.290Z,97689.31
2022-09-21T14:09:31.627Z,97684.69
2022-09-21T14:12:06.293Z,97695.50
2022-09-21T14:14:38.239Z,97693.31
2022-09-21T14:17:36.300Z,97683.81
2022-09-21T14:20:08.248Z,97692.56
2022-09-21T14:22:46.730Z,97686.81
2022-09-21T14:25:53.231Z,97684.13
2022-09-21T14:28:35.548Z,97681.09
2022-09-21T14:31:09.142Z,97685.63
2022-09-21T14:33:49.164Z,97685.00
2022-09-21T14:36:24.763Z,97688.09
2022-09-21T14:39:00.479Z,97686.13
2022-09-21T14:41:37.942Z,97685.19
2022-09-21T14:44:06.452Z,97691.75
2022-09-21T14:46:51.345Z,97680.09
2022-09-21T14:49:41.841Z,97680.81
2022-09-21T14:52:43.550Z,97685.00
2022-09-21T14:55:25.420Z,97675.03
2022-09-21T14:58:26.163Z,97687.63
2022-09-21T15:00:55.427Z,97676.91
2022-09-21T15:04:04.544Z,97670.75
2022-09-21T15:06:58.107Z,97670.28
2022-09-21T15:10:09.587Z,97667.34
2022-09-21T15:12:48.665Z,97663.47
2022-09-21T15:15:36.929Z,97657.59
2022-09-21T15:18:20.479Z,97658.75
2022-09-21T15:21:01.309Z,97669.00
2022-09-21T15:23:35.283Z,97659.50
2022-09-21T15:26:11.039Z,97659.84
2022-09-21T15:29:08.957Z,97658.91
2022-09-21T15:31:42.977Z,97659.19
2022-09-21T15:34:13.854Z,97646.72
2022-09-21T15:36:45.579Z,97647.88
2022-09-21T15:39:30.085Z,97648.41
2022-09-21T15:42:22.737Z,97654.06
2022-09-21T15:45:06.107Z,97649.56
2022-09-21T15:47:35.347Z,97646.28
2022-09-21T15:50:04.091Z,97654.19
2022-09-21T15:52:38.304Z,97645.91
2022-09-21T15:55:18.050Z,97635.69
2022-09-21T15:57:48.005Z,97638.22
2022-09-21T16:00:26.998Z,97642.69
2022-09-21T16:03:05.630Z,97647.81
2022-09-21T16:05:56.325Z,97648.53
2022-09-21T16:08:33.508Z,97650.16
2022-09-21T16:11:37.794Z,97656.06
2022-09-21T16:14:29.620Z,97651.28
2022-09-21T16:17:21.217Z,97653.63
2022-09-21T16:20:21.237Z,97647.88
2022-09-21T16:22:52.448Z,97650.44
2022-09-21T16:25:32.486Z,97652.56
2022-09-21T16:28:04.860Z,97654.53
2022-09-21T16:30:51.103Z,97649.22
2022-09-21T16:33:44.199Z,97647.28
2022-09-21T16:36:50.237Z,97647.94
2022-09-21T16:39:21.177Z,97653.38
2022-09-21T16:41:53.307Z,97650.78
2022-09-21T16:44:26.164Z,97653.97
2022-09-21T16:46:59.041Z,97653.81
2022-09-21T16:49:31.340Z,97651.69
2022-09-21T16:52:00.418Z,97650.00
2022-09-21T16:54:29.806Z,97651.72
2022-09-21T16:57:01.319Z,97656.19
2022-09-21T16:59:33.218Z,97649.03
2022-09-21T17:02:04.235Z,97649.50
2022-09-21T17:04:34.745Z,97658.69
2022-09-21T17:07:05.025Z,97652.06
2022-09-21T17:09:38.381Z,97652.28
2022-09-21T17:12:09.200Z,97657.34
2022-09-21T17:14:44.328Z,97658.94
2022-09-21T17:17:19.564Z,97657.03
2022-09-21T17:19:50.096Z,97657.34
2022-09-21T17:22:19.861Z,97658.91
2022-09-21T17:24:52.107Z,97666.09
2022-09-21T17:27:23.246Z,97661.13
2022-09-21T17:29:55.211Z,97661.69
2022-09-21T17:32:25.855Z,97666.84
2022-09-21T17:35:02.117Z,97663.69
2022-09-21T17:37:32.383Z,97661.50
2022-09-21T17:40:01.172Z,97665.09
2022-09-21T17:42:30.107Z,97674.16
2022-09-21T17:45:15.753Z,97668.28
2022-09-21T17:47:44.488Z,97673.22
2022-09-21T17:50:26.248Z,97682.00
2022-09-21T17:53:14.370Z,97673.69
2022-09-21T17:55:54.361Z,97680.94
2022-09-21T17:58:45.492Z,97676.16
2022-09-21T18:01:30.984Z,97683.53
2022-09-21T18:04:00.652Z,97685.75
2022-09-21T18:06:29.677Z,97684.13
2022-09-21T18:09:01.661Z,97691.00
2022-09-21T18:11:56.829Z,97693.47
2022-09-21T18:14:41.162Z,97682.13
2022-09-21T18:17:38.441Z,97680.38
2022-09-21T18:20:23.561Z,97684.13
2022-09-21T18:23:03.673Z,97682.88
2022-09-21T18:25:47.551Z,97679.13
2022-09-21T18:28:28.858Z,97688.09
2022-09-21T18:31:08.501Z,97688.69
2022-09-21T18:33:56.804Z,97690.34
2022-09-21T18:36:33.796Z,97688.56
2022-09-21T18:39:22.510Z,97691.25
2022-09-21T18:42:16.660Z,97692.13
2022-09-21T18:44:57.552Z,97689.47
2022-09-21T18:47:36.422Z,97695.50
2022-09-21T18:50:24.630Z,97700.66
2022-09-21T18:53:06.556Z,97699.03
2022-09-21T18:55:37.275Z,97693.34
2022-09-21T18:58:06.374Z,97698.88
2022-09-21T19:00:35.657Z,97701.31
2022-09-21T19:03:23.306Z,97700.94
2022-09-21T19:06:15.871Z,97702.56
2022-09-21T19:08:53.969Z,97696.00
2022-09-21T19:11:34.917Z,97692.22
2022-09-21T19:14:18.624Z,97692.59
2022-09-21T19:17:06.135Z,97697.75
2022-09-21T19:19:46.923Z,97693.22
2022-09-21T19:22:29.898Z,97698.28
2022-09-21T19:25:06.644Z,97690.13
2022-09-21T19:27:40.188Z,97693.88
2022-09-21T19:30:12.763Z,97697.16
2022-09-21T19:32:46.997Z,97692.31
2022-09-21T19:35:23.611Z,97692.63
2022-09-21T19:37:55.952Z,97695.84
2022-09-21T19:40:27.831Z,97689.91
2022-09-21T19:43:23.105Z,97694.22
2022-09-21T19:46:22.126Z,97694.22
2022-09-21T19:48:56.965Z,97698.34
2022-09-21T19:51:49.073Z,97690.22
2022-09-21T19:54:40.252Z,97693.47
2022-09-21T19:57:33.277Z,97703.53
2022-09-21T20:00:03.261Z,97694.28
2022-09-21T20:02:40.547Z,97688.31
2022-09-21T20:05:16.080Z,97695.09
2022-09-21T20:07:55.711Z,97691.84
2022-09-21T20:10:36.428Z,97694.84
2022-09-21T20:13:22.046Z,97696.50
2022-09-21T20:15:57.488Z,97695.72
2022-09-21T20:18:38.714Z,97694.34
2022-09-21T20:21:14.699Z,97693.81
2022-09-21T20:23:43.816Z,97694.44
2022-09-21T20:26:24.940Z,97691.75
2022-09-21T20:28:55.317Z,97685.56
2022-09-21T20:31:26.506Z,97688.69
2022-09-21T20:33:54.732Z,97692.81
2022-09-21T20:36:23.355Z,97688.84
2022-09-21T20:38:51.603Z,97689.47
2022-09-21T20:41:22.230Z,97699.50
2022-09-21T20:43:50.442Z,97688.81
2022-09-21T20:46:18.766Z,97685.75
2022-09-21T20:48:48.200Z,97690.84
2022-09-21T20:51:16.676Z,97698.72
2022-09-21T20:53:45.290Z,97694.13
2022-09-21T20:56:13.862Z,97702.34
2022-09-21T20:58:43.372Z,97703.47
2022-09-21T21:01:11.613Z,97709.53
2022-09-21T21:03:39.870Z,97700.31
2022-09-21T21:06:13.764Z,97700.88
2022-09-21T21:08:42.081Z,97710.63
2022-09-21T21:11:11.216Z,97705.22
2022-09-21T21:13:39.492Z,97706.25
2022-09-21T21:16:12.041Z,97700.81
2022-09-21T21:18:41.571Z,97708.47
2022-09-21T21:21:10.122Z,97708.75
2022-09-21T21:23:52.708Z,97699.53
2022-09-21T21:26:29.479Z,97697.66
2022-09-21T21:29:10.291Z,97699.59
2022-09-21T21:31:39.977Z,97698.28
2022-09-21T21:34:08.534Z,97692.78
2022-09-21T21:36:36.848Z,97694.16
2022-09-21T21:39:05.338Z,97693.88
2022-09-21T21:41:34.443Z,97685.66
2022-09-21T21:44:03.073Z,97692.19
2022-09-21T21:46:31.812Z,97692.22
2022-09-21T21:49:01.836Z,97695.25
2022-09-21T21:51:30.213Z,97690.88
2022-09-21T21:53:58.827Z,97685.22
2022-09-21T21:56:27.139Z,97689.28
2022-09-21T21:58:56.290Z,97689.56
2022-09-21T22:01:28.108Z,97696.88
2022-09-21T22:03:59.460Z,97683.28
2022-09-21T22:06:31.994Z,97694.94
2022-09-21T22:09:01.451Z,97684.41
2022-09-21T22:11:32.232Z,97693.47
2022-09-21T22:14:02.624Z,97686.94
2022-09-21T22:16:34.202Z,97678.84
2022-09-21T22:19:05.222Z,97676.63
2022-09-21T22:21:40.900Z,97678.03
2022-09-21T22:24:10.757Z,97674.44
2022-09-21T22:26:46.065Z,97680.38
2022-09-21T22:29:16.669Z,97677.66
2022-09-21T22:31:48.238Z,97672.22
2022-09-21T22:34:17.683Z,97677.34
2022-09-21T22:36:47.276Z,97680.56
2022-09-21T22:39:15.957Z,97680.22
2022-09-21T22:41:44.688Z,97671.72
2022-09-21T22:44:13.212Z,97671.19
2022-09-21T22:46:41.789Z,97672.50
2022-09-21T22:49:10.054Z,97672.72
2022-09-21T22:51:38.952Z,97674.59
2022-09-21T22:54:08.594Z,97678.13
2022-09-21T22:56:37.086Z,97676.63
2022-09-21T22:59:06.789Z,97669.16
2022-09-21T23:01:37.658Z,97688.84
2022-09-21T23:04:09.191Z,97680.50
2022-09-21T23:06:40.223Z,97679.72
2022-09-21T23:09:14.800Z,97669.44
2022-09-21T23:11:47.357Z,97680.56
2022-09-21T23:14:17.548Z,97674.34
2022-09-21T23:16:46.623Z,97676.53
2022-09-21T23:19:16.361Z,97672.75
2022-09-21T23:21:47.048Z,97676.28
2022-09-21T23:24:16.945Z,97674.41
2022-09-21T23:26:45.811Z,97683.38
2022-09-21T23:29:16.522Z,97674.44
2022-09-21T23:31:46.422Z,97673.91
2022-09-21T23:34:16.108Z,97670.09
2022-09-21T23:36:45.790Z,97680.69
2022-09-21T23:39:16.615Z,97677.97
2022-09-21T23:41:45.360Z,97677.19
2022-09-21T23:44:13.545Z,97675.56
2022-09-21T23:46:42.443Z,97668.00
2022-09-21T23:49:11.311Z,97666.34
2022-09-21T23:51:39.737Z,97667.72
2022-09-21T23:54:08.543Z,97666.34
2022-09-21T23:56:38.686Z,97662.00
2022-09-21T23:59:06.974Z,97657.13
